createdAt,value
2023-08-17T00:00:23.396Z,18.72
2023-08-17T00:02:51.642Z,18.74
2023-08-17T00:05:20.105Z,18.82
2023-08-17T00:07:48.340Z,18.84
2023-08-17T00:10:16.275Z,18.85
2023-08-17T00:12:45.713Z,18.97
2023-08-17T00:15:13.464Z,18.87
2023-08-17T00:17:41.513Z,18.92
2023-08-17T00:20:10.856Z,18.87
2023-08-17T00:22:38.861Z,19.00
2023-08-17T00:25:07.546Z,18.91
2023-08-17T00:27:35.474Z,18.99
2023-08-17T00:30:05.055Z,18.97
2023-08-17T00:32:32.990Z,18.89
2023-08-17T00:35:00.662Z,18.80
2023-08-17T00:37:30.426Z,18.86
2023-08-17T00:39:58.155Z,18.76
2023-08-17T00:42:26.469Z,18.75
2023-08-17T00:44:54.173Z,18.85
2023-08-17T00:47:23.480Z,18.84
2023-08-17T00:49:51.759Z,18.86
2023-08-17T00:52:19.636Z,18.94
2023-08-17T00:54:48.092Z,18.86
2023-08-17T00:57:16.283Z,18.94
2023-08-17T00:59:49.704Z,18.87
2023-08-17T01:02:25.221Z,18.84
2023-08-17T01:04:54.142Z,18.86
2023-08-17T01:07:21.975Z,18.79
2023-08-17T01:09:50.007Z,18.79
2023-08-17T01:12:25.607Z,18.79
2023-08-17T01:15:03.285Z,18.71
2023-08-17T01:17:38.844Z,18.69
2023-08-17T01:20:10.778Z,18.64
2023-08-17T01:22:40.559Z,18.74
2023-08-17T01:25:10.646Z,18.71
2023-08-17T01:27:41.943Z,18.77
2023-08-17T01:30:14.996Z,18.71
2023-08-17T01:32:50.169Z,18.63
2023-08-17T01:35:27.714Z,18.58
2023-08-17T01:37:57.756Z,18.52
2023-08-17T01:40:29.884Z,18.59
2023-08-17T01:42:58.531Z,18.50
2023-08-17T01:45:27.591Z,18.52
2023-08-17T01:47:56.855Z,18.23
2023-08-17T01:50:24.823Z,18.21
2023-08-17T01:52:52.508Z,18.28
2023-08-17T01:55:23.368Z,18.33
2023-08-17T01:57:52.375Z,18.47
2023-08-17T02:00:20.670Z,18.56
2023-08-17T02:02:48.298Z,18.50
2023-08-17T02:05:16.299Z,18.27
2023-08-17T02:07:47.400Z,18.46
2023-08-17T02:10:16.392Z,18.18
2023-08-17T02:12:44.050Z,17.92
2023-08-17T02:15:13.276Z,17.79
2023-08-17T02:17:41.186Z,17.67
2023-08-17T02:20:12.010Z,18.28
2023-08-17T02:22:40.077Z,18.27
2023-08-17T02:25:09.026Z,17.59
2023-08-17T02:27:37.342Z,17.62
2023-08-17T02:30:06.266Z,17.84
2023-08-17T02:32:35.850Z,17.56
2023-08-17T02:35:03.624Z,17.54
2023-08-17T02:37:31.445Z,17.72
2023-08-17T02:39:59.533Z,17.43
2023-08-17T02:42:27.501Z,17.69
2023-08-17T02:44:55.593Z,17.38
2023-08-17T02:47:23.853Z,17.30
2023-08-17T02:49:53.277Z,17.08
2023-08-17T02:52:21.563Z,17.07
2023-08-17T02:54:49.220Z,16.97
2023-08-17T02:57:23.539Z,17.02
2023-08-17T02:59:51.713Z,17.43
2023-08-17T03:02:19.654Z,17.66
2023-08-17T03:04:47.418Z,17.18
2023-08-17T03:07:16.896Z,17.02
2023-08-17T03:09:44.808Z,16.88
2023-08-17T03:12:13.995Z,16.76
2023-08-17T03:14:41.899Z,16.70
2023-08-17T03:17:09.890Z,16.63
2023-08-17T03:19:37.812Z,16.58
2023-08-17T03:22:05.688Z,16.65
2023-08-17T03:24:35.127Z,16.37
2023-08-17T03:27:02.983Z,16.57
2023-08-17T03:29:31.175Z,16.48
2023-08-17T03:31:59.115Z,16.45
2023-08-17T03:34:27.247Z,16.59
2023-08-17T03:36:54.946Z,16.80
2023-08-17T03:39:23.806Z,17.11
2023-08-17T03:41:53.135Z,17.05
2023-08-17T03:44:22.005Z,16.97
2023-08-17T03:46:50.163Z,17.06
2023-08-17T03:49:17.819Z,16.88
2023-08-17T03:51:45.870Z,16.71
2023-08-17T03:54:14.592Z,16.83
2023-08-17T03:56:43.270Z,16.68
2023-08-17T03:59:12.282Z,16.60
2023-08-17T04:01:40.055Z,16.53
2023-08-17T04:04:07.827Z,16.80
2023-08-17T04:06:37.167Z,17.13
2023-08-17T04:09:05.312Z,16.77
2023-08-17T04:11:33.359Z,16.61
2023-08-17T04:14:01.103Z,16.49
2023-08-17T04:16:30.418Z,16.95
2023-08-17T04:18:58.272Z,16.73
2023-08-17T04:21:26.304Z,16.56
2023-08-17T04:23:53.969Z,17.11
2023-08-17T04:26:21.972Z,16.96
2023-08-17T04:28:49.693Z,17.15
2023-08-17T04:31:18.624Z,17.14
2023-08-17T04:33:51.854Z,16.88
2023-08-17T04:36:19.577Z,16.91
2023-08-17T04:38:47.267Z,16.81
2023-08-17T04:41:15.372Z,16.78
2023-08-17T04:43:44.048Z,16.93
2023-08-17T04:46:11.951Z,16.79
2023-08-17T04:48:40.798Z,16.76
2023-08-17T04:51:10.723Z,16.70
2023-08-17T04:53:38.622Z,16.64
2023-08-17T04:56:06.756Z,16.49
2023-08-17T04:58:34.483Z,16.42
2023-08-17T05:01:02.392Z,16.54
2023-08-17T05:03:33.715Z,16.66
2023-08-17T05:06:02.868Z,16.90
2023-08-17T05:08:31.940Z,16.74
2023-08-17T05:10:59.666Z,16.63
2023-08-17T05:13:28.183Z,16.80
2023-08-17T05:15:59.171Z,16.96
2023-08-17T05:18:27.259Z,17.25
2023-08-17T05:20:55.727Z,17.10
2023-08-17T05:23:23.557Z,17.00
2023-08-17T05:25:55.682Z,17.15
2023-08-17T05:28:23.647Z,17.48
2023-08-17T05:30:51.741Z,17.48
2023-08-17T05:33:19.765Z,17.52
2023-08-17T05:35:47.736Z,17.74
2023-08-17T05:38:15.871Z,17.86
2023-08-17T05:40:43.540Z,17.89
2023-08-17T05:43:13.670Z,17.78
2023-08-17T05:45:41.442Z,17.83
2023-08-17T05:48:09.285Z,17.83
2023-08-17T05:50:37.069Z,18.00
2023-08-17T05:53:05.571Z,18.22
2023-08-17T05:55:33.280Z,18.22
2023-08-17T05:58:01.176Z,18.18
2023-08-17T06:00:30.342Z,18.27
2023-08-17T06:03:02.556Z,18.17
2023-08-17T06:05:30.742Z,18.17
2023-08-17T06:07:58.743Z,18.29
2023-08-17T06:10:27.082Z,18.28
2023-08-17T06:12:55.539Z,18.36
2023-08-17T06:15:24.118Z,18.41
2023-08-17T06:17:53.629Z,18.54
2023-08-17T06:20:21.523Z,18.65
2023-08-17T06:22:50.641Z,18.80
2023-08-17T06:25:18.360Z,18.73
2023-08-17T06:27:46.400Z,18.98
2023-08-17T06:30:14.620Z,18.78
2023-08-17T06:32:42.615Z,19.01
2023-08-17T06:35:11.962Z,19.09
2023-08-17T06:37:39.671Z,19.03
2023-08-17T06:40:10.418Z,19.00
2023-08-17T06:42:38.115Z,19.27
2023-08-17T06:45:07.287Z,19.20
2023-08-17T06:47:35.011Z,19.27
2023-08-17T06:50:02.879Z,19.31
2023-08-17T06:52:31.926Z,19.44
2023-08-17T06:54:59.868Z,19.50
2023-08-17T06:57:27.998Z,19.65
2023-08-17T06:59:56.200Z,19.68
2023-08-17T07:02:23.956Z,19.72
2023-08-17T07:04:52.049Z,19.92
2023-08-17T07:07:19.752Z,19.70
2023-08-17T07:09:49.038Z,19.69
2023-08-17T07:12:16.771Z,19.74
2023-08-17T07:14:44.600Z,19.44
2023-08-17T07:17:12.333Z,19.72
2023-08-17T07:20:00.021Z,19.80
2023-08-17T07:22:27.866Z,20.14
2023-08-17T07:24:58.353Z,19.87
2023-08-17T07:27:26.417Z,19.91
2023-08-17T07:29:54.875Z,20.26
2023-08-17T07:32:22.859Z,20.39
2023-08-17T07:34:51.046Z,20.32
2023-08-17T07:37:18.743Z,20.48
2023-08-17T07:39:46.646Z,20.36
2023-08-17T07:42:15.812Z,20.32
2023-08-17T07:44:44.119Z,20.42
2023-08-17T07:47:11.855Z,20.45
2023-08-17T07:49:39.751Z,20.63
2023-08-17T07:52:07.539Z,20.84
2023-08-17T07:54:36.177Z,20.85
2023-08-17T07:57:04.558Z,20.81
2023-08-17T07:59:36.273Z,20.99
2023-08-17T08:02:03.925Z,21.18
2023-08-17T08:04:31.994Z,21.31
2023-08-17T08:06:59.653Z,21.55
2023-08-17T08:09:27.347Z,21.50
2023-08-17T08:11:55.404Z,21.24
2023-08-17T08:14:23.118Z,21.41
2023-08-17T08:16:53.444Z,21.55
2023-08-17T08:19:21.122Z,21.73
2023-08-17T08:21:48.834Z,21.84
2023-08-17T08:24:26.367Z,21.91
2023-08-17T08:26:59.075Z,22.23
2023-08-17T08:29:26.802Z,22.60
2023-08-17T08:31:56.245Z,22.57
2023-08-17T08:34:23.984Z,22.42
2023-08-17T08:36:51.749Z,22.36
2023-08-17T08:39:19.597Z,22.37
2023-08-17T08:41:47.388Z,22.18
2023-08-17T08:44:15.360Z,22.57
2023-08-17T08:46:46.520Z,22.85
2023-08-17T08:49:21.652Z,22.81
2023-08-17T08:51:52.734Z,22.94
2023-08-17T08:54:24.365Z,22.97
2023-08-17T08:56:56.547Z,22.87
2023-08-17T08:59:26.333Z,22.96
2023-08-17T09:01:54.039Z,23.07
2023-08-17T09:04:23.553Z,23.13
2023-08-17T09:06:52.649Z,23.25
2023-08-17T09:09:20.769Z,23.43
2023-08-17T09:11:48.485Z,23.41
2023-08-17T09:14:16.241Z,23.29
2023-08-17T09:16:44.298Z,23.33
2023-08-17T09:19:12.295Z,23.62
2023-08-17T09:21:41.713Z,23.48
2023-08-17T09:24:09.995Z,23.61
2023-08-17T09:26:39.021Z,23.77
2023-08-17T09:29:18.770Z,23.77
2023-08-17T09:31:46.920Z,24.01
2023-08-17T09:34:16.651Z,24.02
2023-08-17T09:36:48.707Z,24.11
2023-08-17T09:39:17.990Z,24.31
2023-08-17T09:41:46.204Z,24.16
2023-08-17T09:44:14.192Z,24.14
2023-08-17T09:46:45.018Z,24.08
2023-08-17T09:49:13.092Z,24.45
2023-08-17T09:51:45.856Z,24.28
2023-08-17T09:54:24.320Z,24.58
2023-08-17T09:56:53.271Z,24.59
2023-08-17T09:59:21.985Z,24.48
2023-08-17T10:01:56.708Z,24.75
2023-08-17T10:04:26.038Z,24.72
2023-08-17T10:07:00.300Z,24.81
2023-08-17T10:09:33.568Z,25.08
2023-08-17T10:12:07.685Z,25.00
2023-08-17T10:14:42.553Z,25.13
2023-08-17T10:17:13.993Z,25.06
2023-08-17T10:19:46.053Z,25.16
2023-08-17T10:22:20.727Z,25.32
2023-08-17T10:24:49.520Z,25.57
2023-08-17T10:27:18.981Z,25.38
2023-08-17T10:29:47.628Z,25.39
2023-08-17T10:32:17.149Z,25.61
2023-08-17T10:34:46.929Z,25.75
2023-08-17T10:37:17.283Z,25.79
2023-08-17T10:39:48.139Z,26.02
2023-08-17T10:42:20.808Z,26.10
2023-08-17T10:44:50.459Z,26.05
2023-08-17T10:47:22.810Z,26.26
2023-08-17T10:49:51.665Z,26.05
2023-08-17T10:52:29.256Z,26.00
2023-08-17T10:54:57.829Z,26.25
2023-08-17T10:57:33.545Z,26.10
2023-08-17T11:00:21.981Z,25.94
2023-08-17T11:02:57.828Z,26.12
2023-08-17T11:05:43.112Z,26.18
2023-08-17T11:08:21.729Z,26.22
2023-08-17T11:10:51.680Z,26.78
2023-08-17T11:13:19.560Z,26.89
2023-08-17T11:15:49.344Z,26.72
2023-08-17T11:18:17.527Z,26.72
2023-08-17T11:20:45.740Z,26.74
2023-08-17T11:23:16.079Z,26.77
2023-08-17T11:25:44.844Z,27.04
2023-08-17T11:28:14.817Z,27.05
2023-08-17T11:33:15.876Z,26.56
2023-08-17T11:35:43.806Z,26.81
2023-08-17T11:38:11.747Z,26.89
2023-08-17T11:40:40.804Z,26.67
2023-08-17T11:43:09.997Z,26.89
2023-08-17T11:45:38.138Z,27.35
2023-08-17T11:48:06.713Z,27.38
2023-08-17T11:50:39.869Z,27.35
2023-08-17T11:53:08.348Z,27.61
2023-08-17T11:55:36.197Z,27.49
2023-08-17T11:58:09.847Z,27.51
2023-08-17T12:00:38.968Z,27.35
2023-08-17T12:03:07.061Z,27.38
2023-08-17T12:05:35.594Z,27.12
2023-08-17T12:08:04.131Z,27.06
2023-08-17T12:10:33.967Z,26.67
2023-08-17T12:13:01.781Z,27.28
2023-08-17T12:15:34.939Z,27.58
2023-08-17T12:18:05.859Z,28.30
2023-08-17T12:20:36.883Z,28.13
2023-08-17T12:23:05.396Z,27.62
2023-08-17T12:25:33.537Z,27.28
2023-08-17T12:28:02.161Z,27.06
2023-08-17T12:30:32.880Z,27.06
2023-08-17T12:33:01.973Z,26.70
2023-08-17T12:35:30.012Z,26.60
2023-08-17T12:37:57.717Z,26.59
2023-08-17T12:40:25.773Z,26.84
2023-08-17T12:42:53.461Z,26.68
2023-08-17T12:45:21.642Z,26.61
2023-08-17T12:47:49.671Z,26.57
2023-08-17T12:50:19.889Z,26.33
2023-08-17T12:52:47.754Z,26.33
2023-08-17T12:55:15.816Z,26.23
2023-08-17T12:57:43.513Z,26.61
2023-08-17T13:00:12.442Z,26.78
2023-08-17T13:02:40.383Z,26.98
2023-08-17T13:05:08.843Z,27.29
2023-08-17T13:07:37.943Z,27.24
2023-08-17T13:10:06.750Z,27.19
2023-08-17T13:12:34.511Z,27.56
2023-08-17T13:15:02.456Z,27.64
2023-08-17T13:17:30.419Z,27.89
2023-08-17T13:19:58.258Z,27.58
2023-08-17T13:22:26.410Z,27.96
2023-08-17T13:24:55.624Z,27.77
2023-08-17T13:27:23.330Z,27.83
2023-08-17T13:29:51.061Z,27.30
2023-08-17T13:32:18.986Z,27.18
2023-08-17T13:34:46.822Z,27.13
2023-08-17T13:37:14.813Z,27.09
2023-08-17T13:39:42.512Z,26.92
2023-08-17T13:42:11.899Z,26.74
2023-08-17T13:44:39.913Z,26.65
2023-08-17T13:47:07.693Z,26.57
2023-08-17T13:49:35.496Z,26.69
2023-08-17T13:52:03.393Z,26.57
2023-08-17T13:54:31.206Z,26.67
2023-08-17T13:56:59.214Z,26.52
2023-08-17T13:59:28.261Z,26.46
2023-08-17T14:01:57.330Z,26.44
2023-08-17T14:04:25.145Z,26.54
2023-08-17T14:06:53.564Z,26.75
2023-08-17T14:09:21.341Z,26.91
2023-08-17T14:11:49.091Z,27.13
2023-08-17T14:14:17.133Z,27.00
2023-08-17T14:16:46.277Z,26.69
2023-08-17T14:19:13.994Z,26.79
2023-08-17T14:21:42.076Z,26.88
2023-08-17T14:24:10.678Z,27.19
2023-08-17T14:26:38.970Z,27.44
2023-08-17T14:29:06.610Z,27.81
2023-08-17T14:31:34.329Z,27.63
2023-08-17T14:34:06.423Z,27.79
2023-08-17T14:36:34.220Z,27.89
2023-08-17T14:39:02.401Z,27.94
2023-08-17T14:41:33.289Z,28.27
2023-08-17T14:44:03.424Z,28.22
2023-08-17T14:46:31.731Z,28.31
2023-08-17T14:48:59.895Z,28.45
2023-08-17T14:51:31.869Z,28.54
2023-08-17T14:54:00.205Z,28.47
2023-08-17T14:56:27.822Z,28.20
2023-08-17T14:58:56.048Z,28.47
2023-08-17T15:01:23.800Z,28.37
2023-08-17T15:03:51.808Z,28.12
2023-08-17T15:06:32.245Z,28.27
2023-08-17T15:09:04.289Z,28.04
2023-08-17T15:11:32.095Z,27.84
2023-08-17T15:14:00.034Z,28.02
2023-08-17T15:16:29.170Z,28.05
2023-08-17T15:18:57.088Z,28.18
2023-08-17T15:21:25.121Z,28.13
2023-08-17T15:23:52.834Z,28.21
2023-08-17T15:26:22.094Z,28.06
2023-08-17T15:28:49.775Z,28.26
2023-08-17T15:31:18.120Z,28.27
2023-08-17T15:33:45.991Z,27.93
2023-08-17T15:36:14.079Z,28.06
2023-08-17T15:38:41.814Z,28.37
2023-08-17T15:41:10.277Z,28.43
2023-08-17T15:43:39.321Z,28.43
2023-08-17T15:46:07.797Z,28.60
2023-08-17T15:48:35.609Z,28.79
2023-08-17T15:51:03.718Z,28.67
2023-08-17T15:53:31.578Z,28.71
2023-08-17T15:55:59.355Z,28.37
2023-08-17T15:58:27.102Z,28.61
2023-08-17T16:00:56.414Z,28.63
2023-08-17T16:03:24.379Z,29.12
2023-08-17T16:05:52.320Z,29.03
2023-08-17T16:08:22.625Z,28.89
2023-08-17T16:10:54.859Z,28.87
2023-08-17T16:13:22.753Z,28.81
2023-08-17T16:15:53.202Z,28.76
2023-08-17T16:18:23.165Z,28.76
2023-08-17T16:20:50.870Z,28.66
2023-08-17T16:23:22.342Z,28.76
2023-08-17T16:25:50.692Z,28.82
2023-08-17T16:28:18.634Z,29.09
2023-08-17T16:30:46.375Z,28.57
2023-08-17T16:33:16.386Z,28.84
2023-08-17T16:35:45.566Z,28.90
2023-08-17T16:38:13.559Z,28.78
2023-08-17T16:40:41.295Z,28.76
2023-08-17T16:43:09.004Z,28.28
2023-08-17T16:45:36.747Z,27.90
2023-08-17T16:48:05.136Z,27.85
2023-08-17T16:50:33.767Z,27.64
2023-08-17T16:53:03.378Z,27.41
2023-08-17T16:55:31.134Z,27.18
2023-08-17T16:57:59.097Z,27.29
2023-08-17T17:00:26.759Z,27.55
2023-08-17T17:02:54.817Z,27.75
2023-08-17T17:05:22.612Z,27.39
2023-08-17T17:07:50.381Z,27.10
2023-08-17T17:10:21.217Z,26.90
2023-08-17T17:12:49.110Z,26.90
2023-08-17T17:15:17.389Z,26.53
2023-08-17T17:17:45.215Z,26.52
2023-08-17T17:20:14.333Z,26.23
2023-08-17T17:22:42.016Z,25.92
2023-08-17T17:25:10.562Z,25.94
2023-08-17T17:27:41.066Z,25.63
2023-08-17T17:30:10.299Z,25.51
2023-08-17T17:32:38.238Z,25.28
2023-08-17T17:35:06.933Z,25.08
2023-08-17T17:37:34.845Z,25.02
2023-08-17T17:40:02.496Z,25.08
2023-08-17T17:42:30.139Z,25.03
2023-08-17T17:44:59.739Z,24.93
2023-08-17T17:47:27.992Z,24.81
2023-08-17T17:49:56.153Z,24.63
2023-08-17T17:52:27.940Z,24.14
2023-08-17T17:54:56.044Z,24.27
2023-08-17T17:57:23.810Z,24.26
2023-08-17T17:59:52.393Z,24.19
2023-08-17T18:02:26.744Z,24.11
2023-08-17T18:04:54.536Z,24.03
2023-08-17T18:07:22.242Z,23.96
2023-08-17T18:09:50.243Z,23.87
2023-08-17T18:12:17.892Z,23.78
2023-08-17T18:14:46.111Z,23.66
2023-08-17T18:17:13.880Z,23.50
2023-08-17T18:19:43.169Z,23.52
2023-08-17T18:22:10.868Z,23.41
2023-08-17T18:24:38.782Z,23.34
2023-08-17T18:27:06.938Z,23.51
2023-08-17T18:29:35.743Z,23.27
2023-08-17T18:32:03.470Z,23.24
2023-08-17T18:34:31.182Z,23.06
2023-08-17T18:37:00.474Z,23.11
2023-08-17T18:39:28.133Z,22.90
2023-08-17T18:41:55.994Z,22.80
2023-08-17T18:44:23.765Z,22.71
2023-08-17T18:46:51.708Z,22.73
2023-08-17T18:49:19.441Z,22.61
2023-08-17T18:51:47.814Z,22.64
2023-08-17T18:54:16.911Z,22.56
2023-08-17T18:56:44.671Z,22.52
2023-08-17T18:59:12.356Z,22.44
2023-08-17T19:01:40.455Z,22.49
2023-08-17T19:04:08.334Z,22.48
2023-08-17T19:06:36.051Z,22.46
2023-08-17T19:09:04.503Z,22.40
2023-08-17T19:11:33.827Z,22.46
2023-08-17T19:14:03.033Z,22.51
2023-08-17T19:16:31.240Z,22.55
2023-08-17T19:18:59.044Z,22.60
2023-08-17T19:21:26.929Z,22.52
2023-08-17T19:23:54.631Z,22.51
2023-08-17T19:26:22.579Z,22.50
2023-08-17T19:28:51.718Z,22.50
2023-08-17T19:31:19.629Z,22.52
2023-08-17T19:33:47.952Z,22.47
2023-08-17T19:36:15.668Z,22.38
2023-08-17T19:38:43.596Z,22.35
2023-08-17T19:41:11.387Z,22.35
2023-08-17T19:43:39.345Z,22.34
2023-08-17T19:46:08.446Z,22.30
2023-08-17T19:48:36.373Z,22.31
2023-08-17T19:51:04.838Z,22.23
2023-08-17T19:53:32.628Z,22.20
2023-08-17T19:56:00.462Z,22.24
2023-08-17T19:58:28.228Z,22.30
2023-08-17T20:00:56.378Z,22.36
2023-08-17T20:03:25.572Z,22.34
2023-08-17T20:05:57.454Z,22.17
2023-08-17T20:08:25.349Z,22.37
2023-08-17T20:10:52.993Z,22.32
2023-08-17T20:13:20.646Z,22.31
2023-08-17T20:15:54.292Z,22.31
2023-08-17T20:18:22.033Z,22.27
2023-08-17T20:20:56.754Z,22.22
2023-08-17T20:23:25.204Z,22.21
2023-08-17T20:25:56.328Z,22.20
2023-08-17T20:28:25.938Z,22.18
2023-08-17T20:30:57.359Z,22.26
2023-08-17T20:33:25.019Z,22.31
2023-08-17T20:35:55.938Z,22.26
2023-08-17T20:38:24.663Z,22.35
2023-08-17T20:40:52.586Z,22.30
2023-08-17T20:43:20.621Z,22.28
2023-08-17T20:45:48.448Z,22.18
2023-08-17T20:48:16.133Z,22.22
2023-08-17T20:50:46.399Z,22.22
2023-08-17T20:53:15.996Z,22.17
2023-08-17T20:55:44.048Z,21.98
2023-08-17T20:58:11.858Z,22.04
2023-08-17T21:00:39.595Z,21.75
2023-08-17T21:03:07.387Z,21.94
2023-08-17T21:05:35.321Z,21.92
2023-08-17T21:08:04.141Z,21.90
2023-08-17T21:10:33.648Z,21.89
2023-08-17T21:13:01.454Z,21.90
2023-08-17T21:15:29.228Z,21.81
2023-08-17T21:17:56.990Z,21.73
2023-08-17T21:20:25.264Z,21.75
2023-08-17T21:22:53.410Z,21.62
2023-08-17T21:25:21.176Z,21.54
2023-08-17T21:27:50.650Z,21.49
2023-08-17T21:30:18.549Z,21.42
2023-08-17T21:32:46.217Z,21.35
2023-08-17T21:35:14.425Z,21.28
2023-08-17T21:37:44.358Z,21.21
2023-08-17T21:40:12.994Z,21.25
2023-08-17T21:42:40.906Z,21.19
2023-08-17T21:45:11.140Z,21.10
2023-08-17T21:47:38.904Z,21.11
2023-08-17T21:50:07.675Z,21.08
2023-08-17T21:52:35.577Z,21.10
2023-08-17T21:55:03.824Z,21.08
2023-08-17T21:57:31.818Z,21.07
2023-08-17T21:59:59.999Z,21.04
2023-08-17T22:02:29.106Z,20.94
2023-08-17T22:04:57.116Z,20.89
2023-08-17T22:07:24.877Z,20.87
2023-08-17T22:09:52.764Z,20.90
2023-08-17T22:12:20.545Z,20.81
2023-08-17T22:14:48.872Z,20.82
2023-08-17T22:17:16.600Z,20.80
2023-08-17T22:19:45.924Z,20.79
2023-08-17T22:22:13.566Z,20.73
2023-08-17T22:24:50.814Z,20.66
2023-08-17T22:27:19.625Z,20.63
2023-08-17T22:29:47.552Z,20.60
2023-08-17T22:32:15.347Z,20.60
2023-08-17T22:34:43.296Z,20.61
2023-08-17T22:37:12.315Z,20.56
2023-08-17T22:39:40.235Z,20.52
2023-08-17T22:42:07.918Z,20.49
2023-08-17T22:44:35.688Z,20.40
2023-08-17T22:47:04.592Z,20.39
2023-08-17T22:49:32.563Z,20.37
2023-08-17T22:52:02.086Z,20.35
2023-08-17T22:54:31.251Z,20.36
2023-08-17T22:56:58.908Z,20.31
2023-08-17T22:59:27.354Z,20.38
2023-08-17T23:01:55.379Z,20.41
2023-08-17T23:04:23.099Z,20.34
2023-08-17T23:06:51.201Z,20.37
2023-08-17T23:09:18.837Z,20.46
2023-08-17T23:11:48.110Z,20.35
2023-08-17T23:14:16.166Z,20.28
2023-08-17T23:16:43.853Z,20.31
2023-08-17T23:19:11.502Z,20.28
2023-08-17T23:21:39.643Z,20.29
2023-08-17T23:24:38.935Z,20.21
2023-08-17T23:27:08.145Z,20.33
2023-08-17T23:29:36.240Z,20.25
2023-08-17T23:32:16.744Z,20.17
2023-08-17T23:34:54.252Z,20.10
2023-08-17T23:37:22.025Z,20.07
2023-08-17T23:39:49.902Z,20.04
2023-08-17T23:42:19.050Z,19.94
2023-08-17T23:44:47.092Z,19.88
2023-08-17T23:47:15.523Z,19.83
2023-08-17T23:49:43.203Z,19.82
2023-08-17T23:52:11.108Z,19.73
2023-08-17T23:54:39.056Z,19.72
2023-08-17T23:57:08.492Z,19.65
2023-08-17T23:59:37.551Z,19.73
